Tiempo atmosférico en la estación meteorológica de Fuente De Piedra, Málaga (423 m.)

Fecha
DESCASC
Temp. máxima en grados centígrados (hora)
DESCASC
Temp. mínima en grados centígrados (hora)
DESCASC
Temp. media en grados centígrados
DESCASC
Racha de viento máxima en m/sg (hora)
DESCASC
Velocidad máxima media en intervalos de 10 minutos(hora)
DESCASC
Precipitaciones diarias en mm
DESCASC
Precipitaciones de 00:00 a 06:00 en mm
DESCASC
Precipitaciones de 06:00 a 12:00 en mm
DESCASC
Precipitaciones de 12:00 a 18:00 en mm
DESCASC
Precipitaciones de 18:00 a 24:00 en mm
DESCASC
21-09-2017 29.1 (16:50) 10 (08:10) 19.6 9.44 (15:30) 6.11 (15:30) 0 0 0 0 0
20-09-2017 28.4 (17:10) 11.9 (08:10) 20.1 11.67 (16:00) 7.78 (15:00) 0 0 0 0 0
19-09-2017 30.2 (17:30) 11.7 (08:10) 21 5.56 (18:40) 3.61 (20:30) 0 0 0 0 0
18-09-2017 26.8 (17:50) 9.8 (07:40) 18.3 10.56 (21:20) 6.67 (21:10) 0 0 0 0 0
17-09-2017 28.6 (16:40) 9.2 (00:00) 18.9 9.44 (18:10) 5.28 (17:30) 0 0 0 0 0
16-09-2017 25.2 (16:50) 10.1 (00:00) 17.7 10 (16:10) 6.11 (18:00) 0 0 0 0 0
15-09-2017 27.7 (16:30) 15.9 (00:00) 21.8 11.67 (15:10) 7.22 (15:30) 0 0 0 0 0
14-09-2017 32 (17:20) 14.2 (00:00) 23.1 10 (16:10) 5.83 (19:40) 0 0 0 0 0
13-09-2017 31.2 (15:40) 18.7 (00:00) 25 11.94 (13:00) 8.61 (13:10) 0 0 0 0 0
12-09-2017 33.9 (17:00) 14.7 (00:00) 24.3 8.06 (17:10) 5.28 (17:10) 0 0 0 0 0
11-09-2017 33.3 (17:50) 12 (00:00) 22.6 4.17 (18:20) 2.78 (19:20) 0 0 0 0 0
10-09-2017 26.2 (17:00) 12.7 (00:00) 19.5 8.61 (17:50) 5.83 (17:50) 0 0 0 0 0
09-09-2017 25.9 (18:00) 13.1 (00:00) 19.5 13.06 (17:40) 8.33 (17:40) 0 0 0 0 0
08-09-2017 34.2 (16:00) 17.9 (00:00) 26.1 7.78 (19:00) 5 (18:40) 0 0 0 0 0
07-09-2017 32.2 (16:40) 19.2 (00:00) 25.7 8.33 (14:20) 5 (14:20) 0 0 0 0 0
06-09-2017 33.6 (15:50) 18.6 (00:00) 26.1 9.72 (20:10) 6.67 (19:10) 0 0 0 0 0
05-09-2017 30.5 (18:00) 18 (00:00) 24.3 11.67 (14:40) 8.33 (15:00) 0 0 0 0 0
04-09-2017 31.5 (16:30) 17.3 (00:00) 24.4 11.11 (16:30) 6.67 (18:00) 0 0 0 0 0
03-09-2017 32.4 (17:40) 19.9 (00:00) 26.2 9.72 (05:00) 6.11 (05:20) 0 0 0 0 0
02-09-2017 28.5 (16:40) 20.6 (00:00) 24.6 12.22 (18:30) 8.89 (19:10) 0 0 0 0 0
01-09-2017 29.8 (15:50) 19.2 (00:00) 24.5 11.39 (19:30) 7.78 (19:10) 0 0 0 0 0
31-08-2017 30.6 (17:30) 17.1 (00:00) 23.9 8.06 (19:40) 5.83 (19:00) 0 0 0 0 0
30-08-2017 27.1 (17:00) 17.2 (00:00) 22.2 10.28 (19:00) 7.78 (19:00) 0 0 0 0 0
29-08-2017 25 (16:00) 16.6 (00:00) 20.8 8.89 (18:30) 6.39 (18:40) 20.2 0 0 0 20.2
28-08-2017 23.8 (01:50) 17.1 (00:00) 20.4 13.33 (02:00) 8.61 (02:10) 49.6 0 26.6 21.6 1.4
27-08-2017 30.2 (17:50) 21.2 (00:00) 25.7 14.17 (03:10) 8.89 (01:50) 8.6 0 0 8.6 0
26-08-2017 33.9 (17:30) 22.9 (00:00) 28.4 15.56 (23:59) 10.56 (23:30) 0 0 0 0 0
25-08-2017 35.3 (15:00) 19.7 (00:00) 27.5 11.39 (11:30) 8.06 (11:30) 0 0 0 0 0
24-08-2017 36.1 (16:00) 17.5 (00:00) 26.8 9.72 (16:10) 6.67 (14:40) 0 0 0 0 0

Gráficas

Temp. máximas Temp. mínimas Temp. medias Precipitaciones Rachas de viento máximas Velocidades máximas media en intervalos de 10 minutos

Datos horarios

Fecha y hora oficial Temperatura (ºC) Velocidad del viento (km/h) Dirección del viento Racha (km/h) Dirección de racha Precipitación (mm) Presión (hPa) Tendencia (hPa) Humedad (%)
2017-09-22 23:00:00 19.7 19 Sur 32 Sur 0 -- -- 77
2017-09-22 22:00:00 20.2 18 Sur 30 Sur 0 -- -- 72
2017-09-22 21:00:00 21.4 19 Sur 30 Sudoeste 0 -- -- 61
2017-09-22 20:00:00 23.2 21 Sur 35 Sur 0 -- -- 44
2017-09-22 19:00:00 25.6 23 Sur 35 Sur 0 -- -- 42
2017-09-22 18:00:00 26.6 23 Sur 34 Sur 0 -- -- 41
2017-09-22 17:00:00 27.1 22 Sur 35 Sur 0 -- -- 42
2017-09-22 16:00:00 27.1 23 Sur 37 Sur 0 -- -- 44
2017-09-22 15:00:00 26.9 23 Sur 37 Sur 0 -- -- 44
2017-09-22 14:00:00 27.4 19 Sur 31 Sudoeste 0 -- -- 38
2017-09-22 13:00:00 27.1 8 Sur 21 Sudoeste 0 -- -- 32
2017-09-22 12:00:00 24.6 8 Sudoeste 15 Sudoeste 0 -- -- 37
2017-09-22 11:00:00 20.2 4 Oeste 6 Oeste 0 -- -- 49
2017-09-22 10:00:00 16.2 2 Sudoeste 4 Oeste 0 -- -- 60
2017-09-22 09:00:00 13 2 Sudeste 3 Sudeste 0 -- -- 71
2017-09-22 08:00:00 12.2 0 Calma 6 Sur 0 -- -- 70
2017-09-22 07:00:00 13.1 0 Calma 5 Sur 0 -- -- 66
2017-09-22 06:00:00 13.9 0 Calma 3 Nordeste 0 -- -- 58
2017-09-22 05:00:00 14.7 0 Calma 4 Sur 0 -- -- 59
2017-09-22 04:00:00 15.9 0 Calma 4 Sur 0 -- -- 55
2017-09-22 03:00:00 16.6 0 Calma 8 Sudoeste 0 -- -- 52
2017-09-22 02:00:00 17.6 6 Sudoeste 8 Sudoeste 0 -- -- 50
2017-09-22 01:00:00 18.8 6 Sudoeste 11 Sudoeste 0 -- -- 44
2017-09-22 00:00:00 19 8 Sur 13 Sur 0 -- -- 44
2017-09-21 23:00:00 20.7 5 Sur 12 Sudoeste 0 -- -- 43
2017-09-21 22:00:00 21.9 6 Sudoeste 12 Sudoeste 0 -- -- 38
2017-09-21 21:00:00 23.5 9 Sur 19 Sur 0 -- -- 30
2017-09-21 20:00:00 25.7 15 Sur 25 Sur 0 -- -- 26
2017-09-21 19:00:00 27.4 19 Sur 27 Sur 0 -- -- 25
2017-09-21 18:00:00 28.9 18 Sudeste 27 Sur 0 -- -- 24
2017-09-21 17:00:00 28.8 19 Sur 29 Sur 0 -- -- 23
2017-09-21 16:00:00 28.5 19 Sur 34 Sur 0 -- -- 24
2017-09-21 15:00:00 28.9 21 Sur 29 Sur 0 -- -- 24
2017-09-21 14:00:00 28.1 17 Sur 27 Sur 0 -- -- 27
2017-09-21 13:00:00 26.8 13 Sur 31 Sur 0 -- -- 28
2017-09-21 12:00:00 24.9 14 Sur 23 Sur 0 -- -- 31
2017-09-21 11:00:00 20.4 3 Sur 8 Sudoeste 0 -- -- 46
2017-09-21 10:00:00 16 0 Calma 5 Oeste 0 -- -- 58
2017-09-21 09:00:00 12.3 0 Calma 5 Sudoeste 0 -- -- 71
2017-09-21 08:00:00 10.2 4 Sur 5 Sur 0 -- -- 75
2017-09-21 07:00:00 10.9 0 Calma 3 Sudeste 0 -- -- 71
2017-09-21 06:00:00 11.7 0 Calma 4 Sur 0 -- -- 68
2017-09-21 05:00:00 12.4 4 Oeste 6 Oeste 0 -- -- 64
2017-09-21 04:00:00 14.4 0 Calma 5 Nordeste 0 -- -- 60
2017-09-21 03:00:00 16.3 3 Este 4 Nordeste 0 -- -- 57
2017-09-21 02:00:00 16.7 3 Oeste 10 Oeste 0 -- -- 56
2017-09-21 01:00:00 17.4 6 Oeste 12 Oeste 0 -- -- 53
2017-09-21 00:00:00 18.6 3 Sudoeste 8 Sudoeste 0 -- -- 50
2017-09-20 23:00:00 20.2 4 Sudoeste 19 Sur 0 -- -- 44
2017-09-20 22:00:00 21.8 13 Sudoeste 23 Sur 0 -- -- 39
2017-09-20 21:00:00 22.7 10 Sur 25 Sur 0 -- -- 37
2017-09-20 20:00:00 24.5 18 Sur 29 Sur 0 -- -- 31
2017-09-20 19:00:00 26.8 21 Sur 36 Sur 0 -- -- 27
2017-09-20 18:00:00 28 23 Sur 37 Sudeste 0 -- -- 25
2017-09-20 17:00:00 28.2 24 Sudeste 39 Sudeste 0 -- -- 25
2017-09-20 16:00:00 28.1 28 Sur 42 Sur 0 -- -- 27
2017-09-20 15:00:00 28.1 28 Sur 42 Sur 0 -- -- 26
2017-09-20 14:00:00 27.9 21 Sur 37 Sur 0 -- -- 32
2017-09-20 13:00:00 27 18 Sur 29 Sur 0 -- -- 34
2017-09-20 12:00:00 25.4 17 Sur 25 Sur 0 -- -- 38
2017-09-20 11:00:00 20.1 4 Sudoeste 7 Oeste 0 -- -- 51
2017-09-20 10:00:00 16.5 2 Sur 4 Sur 0 -- -- 64
2017-09-20 09:00:00 13.7 0 Calma 3 Sudeste 0 -- -- 72
2017-09-20 08:00:00 12.1 2 Sur 4 Sur 0 -- -- 76
2017-09-20 07:00:00 12.9 2 Sudeste 4 Oeste 0 -- -- 72
2017-09-20 06:00:00 13.6 0 Calma 3 Sudeste 0 -- -- 67
2017-09-20 05:00:00 14.3 2 Norte 2 Norte 0 -- -- 64
2017-09-20 04:00:00 15.5 3 Norte 8 Sudoeste 0 -- -- 59
2017-09-20 03:00:00 16.3 5 Sudoeste 9 Sur 0 -- -- 59
2017-09-20 02:00:00 16.8 6 Sur 9 Sur 0 -- -- 56
2017-09-20 01:00:00 18.4 4 Sudoeste 14 Sudoeste 0 -- -- 49
2017-09-20 00:00:00 20.2 13 Sudoeste 16 Sudoeste 0 -- -- 46
2017-09-19 23:00:00 20.1 8 Sudoeste 13 Sur 0 -- -- 49
2017-09-19 22:00:00 21.5 9 Sudoeste 14 Sur 0 -- -- 45
2017-09-19 21:00:00 23.5 8 Sur 17 Sur 0 -- -- 39
2017-09-19 20:00:00 26.9 5 Nordeste 17 Norte 0 -- -- 33
2017-09-19 19:00:00 28.7 10 Norte 20 Norte 0 -- -- 30
2017-09-19 18:00:00 29.6 7 Norte 17 Norte 0 -- -- 29
2017-09-19 17:00:00 29.6 4 Este 14 Noroeste 0 -- -- 27
2017-09-19 16:00:00 29.1 4 Sudoeste 16 Sudoeste 0 -- -- 27
2017-09-19 15:00:00 28.1 7 Sudoeste 17 Sudoeste 0 -- -- 31
2017-09-19 14:00:00 26.8 9 Sudoeste 15 Norte 0 -- -- 34
2017-09-19 13:00:00 26 6 Nordeste 17 Noroeste 0 -- -- 37
2017-09-19 12:00:00 23.4 3 Sudeste 8 Sur 0 -- -- 50
2017-09-19 11:00:00 19.4 3 Noroeste 5 Noroeste 0 -- -- 62
2017-09-19 10:00:00 16.2 0 Calma 4 Sudoeste 0 -- -- 73
2017-09-19 09:00:00 12.8 0 Calma 5 Sudeste 0 -- -- 80
2017-09-19 08:00:00 11.8 0 Calma 4 Sudoeste 0 -- -- 83
2017-09-19 07:00:00 12.8 0 Calma 5 Norte 0 -- -- 82
2017-09-19 06:00:00 13.2 5 Sur 7 Sudeste 0 -- -- 81
2017-09-19 05:00:00 14.1 3 Norte 6 Este 0 -- -- 75
2017-09-19 04:00:00 16.6 3 Este 5 Nordeste 0 -- -- 72
2017-09-19 03:00:00 17.1 4 Norte 13 Noroeste 0 -- -- 67
2017-09-19 02:00:00 18 10 Noroeste 14 Noroeste 0 -- -- 65
2017-09-19 01:00:00 19.1 3 Oeste 11 Noroeste 0 -- -- 61
2017-09-19 00:00:00 19.6 9 Noroeste 24 Oeste 0 -- -- 60
2017-09-18 23:00:00 20.9 15 Oeste 29 Oeste 0 -- -- 56
2017-09-18 22:00:00 22.2 22 Oeste 38 Oeste 0 -- -- 51
2017-09-18 21:00:00 23.8 23 Oeste 33 Oeste 0 -- -- 42
2017-09-18 20:00:00 25 14 Noroeste 28 Noroeste 0 -- -- 35
2017-09-18 19:00:00 26.3 17 Noroeste 31 Noroeste 0 -- -- 30
2017-09-18 18:00:00 26.6 20 Noroeste 32 Noroeste 0 -- -- 29
2017-09-18 17:00:00 26.4 21 Noroeste 31 Oeste 0 -- -- 27
2017-09-18 16:00:00 25.9 17 Noroeste 34 Noroeste 0 -- -- 25
2017-09-18 15:00:00 25.4 19 Noroeste 31 Noroeste 0 -- -- 26
2017-09-18 14:00:00 24.6 18 Noroeste 30 Noroeste 0 -- -- 26
2017-09-18 13:00:00 23.7 19 Noroeste 31 Noroeste 0 -- -- 28
2017-09-18 12:00:00 22.7 4 Sur 9 Sur 0 -- -- 37
2017-09-18 11:00:00 19.4 0 Calma 5 Sudoeste 0 -- -- 45
2017-09-18 10:00:00 14.5 2 Sur 4 Sur 0 -- -- 62
2017-09-18 09:00:00 11.4 0 Calma 3 Sur 0 -- -- 73
2017-09-18 08:00:00 10.1 3 Nordeste 5 Sur 0 -- -- 75
2017-09-18 07:00:00 10.6 0 Calma 4 Sur 0 -- -- 75
2017-09-18 06:00:00 11.8 3 Sur 4 Sur 0 -- -- 70
2017-09-18 05:00:00 12.6 0 Calma 3 Sudeste 0 -- -- 63
2017-09-18 04:00:00 13.5 0 Calma 8 Este 0 -- -- 59
2017-09-18 03:00:00 15.7 5 Sudeste 13 Este 0 -- -- 55
2017-09-18 02:00:00 16.6 5 Sudeste 7 Norte 0 -- -- 56
2017-09-18 01:00:00 18 3 Este 12 Oeste 0 -- -- 53
2017-09-18 00:00:00 20 8 Oeste 20 Oeste 0 -- -- 45
2017-09-17 23:00:00 20.8 7 Oeste 15 Oeste 0 -- -- 43
2017-09-17 22:00:00 21.6 12 Oeste 22 Noroeste 0 -- -- 44
2017-09-17 21:00:00 23.1 13 Noroeste 23 Noroeste 0 -- -- 40
2017-09-17 20:00:00 25 15 Noroeste 24 Noroeste 0 -- -- 35
2017-09-17 19:00:00 26.9 12 Noroeste 34 Oeste 0 -- -- 29
2017-09-17 18:00:00 27.4 13 Noroeste 30 Noroeste 0 -- -- 25
2017-09-17 17:00:00 28.1 11 Oeste 18 Oeste 0 -- -- 25
2017-09-17 16:00:00 28.1 5 Sur 14 Sudoeste 0 -- -- 24
2017-09-17 15:00:00 27 5 Sudoeste 14 Sudoeste 0 -- -- 26
2017-09-17 14:00:00 25.4 6 Sudoeste 15 Sudoeste 0 -- -- 27
2017-09-17 13:00:00 24.1 6 Sudoeste 12 Sudoeste 0 -- -- 33
2017-09-17 12:00:00 21.5 5 Oeste 9 Oeste 0 -- -- 38
2017-09-17 11:00:00 18 2 Sur 5 Oeste 0 -- -- 48
2017-09-17 10:00:00 13.8 3 Sudoeste 5 Sur 0 -- -- 59
2017-09-17 09:00:00 11 0 Calma 4 Sudoeste 0 -- -- 72
2017-09-17 08:00:00 9.2 2 Sur 5 Sur 0 -- -- 75
2017-09-17 07:00:00 10 4 Sur 5 Sur 0 -- -- 74
2017-09-17 06:00:00 11 3 Sur 5 Sur 0 -- -- 71
2017-09-17 05:00:00 11.8 2 Sur 4 Sudoeste 0 -- -- 69
2017-09-17 04:00:00 13.2 4 Sudoeste 8 Sur 0 -- -- 66
2017-09-17 03:00:00 13.7 2 Sudeste 8 Norte 0 -- -- 64
2017-09-17 02:00:00 14.8 5 Nordeste 6 Nordeste 0 -- -- 59
2017-09-17 01:00:00 15.9 6 Este 17 Este 0 -- -- 55
2017-09-17 00:00:00 16.7 4 Norte 8 Noroeste 0 -- -- 50
2017-09-16 23:00:00 17.9 4 Sur 10 Sur 0 -- -- 46
2017-09-16 22:00:00 18.6 7 Noroeste 14 Oeste 0 -- -- 38
2017-09-16 21:00:00 21.1 8 Oeste 14 Oeste 0 -- -- 30
2017-09-16 20:00:00 23 12 Noroeste 22 Noroeste 0 -- -- 27
2017-09-16 19:00:00 24.3 17 Noroeste 31 Oeste 0 -- -- 23
2017-09-16 18:00:00 24.8 22 Noroeste 33 Noroeste 0 -- -- 24
2017-09-16 17:00:00 25.2 15 Oeste 36 Noroeste 0 -- -- 25
2017-09-16 16:00:00 25.1 15 Noroeste 31 Noroeste 0 -- -- 25
2017-09-16 15:00:00 24.5 15 Noroeste 29 Oeste 0 -- -- 26
2017-09-16 14:00:00 23.6 14 Noroeste 27 Noroeste 0 -- -- 27
2017-09-16 13:00:00 22.5 8 Noroeste 19 Noroeste 0 -- -- 29
2017-09-16 12:00:00 20.8 4 Noroeste 18 Norte 0 -- -- 36
2017-09-16 11:00:00 18.9 3 Norte 6 Norte 0 -- -- 40
2017-09-16 10:00:00 14.8 2 Sur 5 Norte 0 -- -- 58
2017-09-16 09:00:00 11.2 3 Sur 4 Sudoeste 0 -- -- 73
2017-09-16 08:00:00 10.1 2 Norte 4 Norte 0 -- -- 72
2017-09-16 07:00:00 10.4 0 Calma 4 Oeste 0 -- -- 72
2017-09-16 06:00:00 11.6 3 Sur 5 Sudoeste 0 -- -- 67
2017-09-16 05:00:00 12.6 4 Sudeste 5 Sudeste 0 -- -- 64
2017-09-16 04:00:00 13.3 0 Calma 7 Oeste 0 -- -- 57
2017-09-16 03:00:00 16.4 5 Oeste 8 Sudoeste 0 -- -- 51
2017-09-16 02:00:00 16.3 3 Sudeste 11 Sur 0 -- -- 51
2017-09-16 01:00:00 16.9 6 Sudeste 21 Oeste 0 -- -- 50
2017-09-16 00:00:00 17.7 6 Sudeste 21 Oeste 0 -- -- 48
2017-09-15 23:00:00 19.3 19 Noroeste 34 Oeste 0 -- -- 43
2017-09-15 22:00:00 20.2 12 Oeste 30 Oeste 0 -- -- 36
2017-09-15 21:00:00 21.9 20 Oeste 33 Oeste 0 -- -- 29
2017-09-15 20:00:00 23.7 17 Oeste 36 Oeste 0 -- -- 24
2017-09-15 19:00:00 25.5 23 Oeste 41 Oeste 0 -- -- 22
2017-09-15 18:00:00 26.8 21 Oeste 39 Oeste 0 -- -- 19
2017-09-15 17:00:00 27.4 23 Oeste 41 Oeste 0 -- -- 17
2017-09-15 16:00:00 27.2 23 Oeste 42 Noroeste 0 -- -- 18
2017-09-15 15:00:00 27.3 22 Oeste 40 Oeste 0 -- -- 16
2017-09-15 14:00:00 26.1 16 Oeste 32 Noroeste 0 -- -- 20
2017-09-15 13:00:00 24.7 18 Noroeste 31 Noroeste 0 -- -- 41
2017-09-15 12:00:00 25.9 5 Sudoeste 10 Sudoeste 0 -- -- 40
2017-09-15 11:00:00 23.3 4 Este 10 Nordeste 0 -- -- 48
2017-09-15 10:00:00 18.9 3 Norte 6 Norte 0 -- -- 59
2017-09-15 09:00:00 16.9 0 Calma 4 Sudoeste 0 -- -- 67
2017-09-15 08:00:00 16.2 5 Sudoeste 6 Sudoeste 0 -- -- 68
2017-09-15 07:00:00 17.9 0 Calma 8 Nordeste 0 -- -- 61
2017-09-15 06:00:00 18.9 4 Nordeste 8 Nordeste 0 -- -- 57
2017-09-15 05:00:00 19.5 3 Nordeste 10 Noroeste 0 -- -- 52
2017-09-15 04:00:00 21.3 10 Oeste 18 Oeste 0 -- -- 46
2017-09-15 03:00:00 20.6 3 Sudoeste 12 Oeste 0 -- -- 49
2017-09-15 02:00:00 19.5 3 Oeste 9 Noroeste 0 -- -- 58
2017-09-15 01:00:00 19.7 3 Nordeste 9 Este 0 -- -- 54
2017-09-15 00:00:00 21.5 5 Sur 8 Sudoeste 0 -- -- 57
2017-09-14 23:00:00 23.1 0 Calma 11 Noroeste 0 -- -- 46
2017-09-14 22:00:00 24.9 8 Norte 13 Noroeste 0 -- -- 41
2017-09-14 21:00:00 26.5 9 Noroeste 25 Oeste 0 -- -- 35
2017-09-14 20:00:00 28.3 15 Oeste 32 Oeste 0 -- -- 32
2017-09-14 19:00:00 29.9 20 Oeste 31 Oeste 0 -- -- 29
2017-09-14 18:00:00 31.1 15 Oeste 32 Noroeste 0 -- -- 22
2017-09-14 17:00:00 31.6 17 Noroeste 36 Noroeste 0 -- -- 22
2017-09-14 16:00:00 31.1 16 Noroeste 27 Noroeste 0 -- -- 26
2017-09-14 15:00:00 30.7 13 Noroeste 28 Noroeste 0 -- -- 26
2017-09-14 14:00:00 30 5 Noroeste 19 Oeste 0 -- -- 32
2017-09-14 13:00:00 28.8 10 Noroeste 19 Noroeste 0 -- -- 34
2017-09-14 12:00:00 27.1 3 Sur 7 Sudoeste 0 -- -- 43
2017-09-14 11:00:00 22.5 2 Sudoeste 5 Oeste 0 -- -- 56
2017-09-14 10:00:00 18.7 3 Sudoeste 5 Sudoeste 0 -- -- 66
2017-09-14 09:00:00 16.2 0 Calma 4 Noroeste 0 -- -- 76
2017-09-14 08:00:00 14.4 0 Calma 3 Sur 0 -- -- 79
2017-09-14 07:00:00 15 2 Sudoeste 5 Noroeste 0 -- -- 78
2017-09-14 06:00:00 15.9 3 Sudeste 9 Noroeste 0 -- -- 76
2017-09-14 05:00:00 16.9 3 Sur 9 Este 0 -- -- 69
2017-09-14 04:00:00 17.9 3 Sudeste 4 Sudeste 0 -- -- 68
2017-09-14 03:00:00 19.2 0 Calma 5 Noroeste 0 -- -- 60
2017-09-14 02:00:00 19.3 3 Oeste 8 Sur 0 -- -- 64
2017-09-14 01:00:00 19.7 5 Sur 13 Sudoeste 0 -- -- 60
2017-09-14 00:00:00 20.8 10 Sudoeste 17 Sudoeste 0 -- -- 61
2017-09-13 23:00:00 21.5 9 Sudoeste 14 Sudoeste 0 -- -- 61
2017-09-13 22:00:00 22.9 10 Sur 19 Sudoeste 0 -- -- 49
2017-09-13 21:00:00 24.7 10 Sur 26 Sur 0 -- -- 42
2017-09-13 20:00:00 27 19 Sur 34 Sur 0 -- -- 37
2017-09-13 19:00:00 28.9 26 Sur 39 Sur 0 -- -- 32
2017-09-13 18:00:00 29.8 27 Sur 40 Sur 0 -- -- 32
2017-09-13 17:00:00 30.3 29 Sur 41 Sur 0 -- -- 32
2017-09-13 16:00:00 31 26 Sur 39 Sur 0 -- -- 32
2017-09-13 15:00:00 30.7 24 Sur 37 Sur 0 -- -- 31
2017-09-13 14:00:00 29.5 24 Sur 41 Sur 0 -- -- 36
2017-09-13 13:00:00 28.1 30 Sur 43 Sur 0 -- -- 43
2017-09-13 12:00:00 26.8 26 Sur 41 Sur 0 -- -- 47
2017-09-13 11:00:00 25.2 24 Sur 37 Sur 0 -- -- 52
2017-09-13 10:00:00 23.5 15 Sur 27 Sur 0 -- -- 60
2017-09-13 09:00:00 20.7 4 Sur 26 Sur 0 -- -- 73
2017-09-13 08:00:00 19.3 14 Sur 24 Sur 0 -- -- 78
2017-09-13 07:00:00 18.8 9 Sur 17 Sur 0 -- -- 84
2017-09-13 06:00:00 19.3 12 Sudoeste 19 Sudoeste 0 -- -- 81
2017-09-13 05:00:00 19.7 12 Sudoeste 27 Sur 0 -- -- 80
2017-09-13 04:00:00 20.4 14 Sudoeste 26 Sur 0 -- -- 72
2017-09-13 03:00:00 19.9 9 Sudoeste 17 Sur 0 -- -- 67
2017-09-13 02:00:00 20.1 13 Sudoeste 19 Sur 0 -- -- 48
2017-09-13 01:00:00 21.4 12 Sur 14 Sur 0 -- -- 39
2017-09-13 00:00:00 23.1 10 Sudoeste 18 Sur 0 -- -- 33
2017-09-12 23:00:00 22.6 3 Sudoeste 10 Sudoeste 0 -- -- 38
2017-09-12 22:00:00 26.1 0 Calma 5 Norte 0 -- -- 28
2017-09-12 21:00:00 28.8 5 Norte 11 Noroeste 0 -- -- 24
2017-09-12 20:00:00 31.6 8 Norte 21 Norte 0 -- -- 20
2017-09-12 19:00:00 33 11 Norte 25 Norte 0 -- -- 17
2017-09-12 18:00:00 33.3 16 Norte 29 Norte 0 -- -- 16
2017-09-12 17:00:00 33.9 17 Norte 27 Norte 0 -- -- 15
2017-09-12 16:00:00 33.4 6 Nordeste 18 Norte 0 -- -- 16
2017-09-12 15:00:00 32.4 9 Norte 18 Nordeste 0 -- -- 18
2017-09-12 14:00:00 31.1 10 Norte 21 Noroeste 0 -- -- 21
2017-09-12 13:00:00 29.6 11 Norte 17 Norte 0 -- -- 26
2017-09-12 12:00:00 28 10 Norte 17 Norte 0 -- -- 30
2017-09-12 11:00:00 23.6 2 Sur 5 Sudoeste 0 -- -- 45
2017-09-12 10:00:00 19.8 3 Sur 5 Norte 0 -- -- 58
2017-09-12 09:00:00 15.8 0 Calma 5 Nordeste 0 -- -- 68
2017-09-12 08:00:00 15 2 Nordeste 3 Nordeste 0 -- -- 67
2017-09-12 07:00:00 14.7 4 Norte 5 Norte 0 -- -- 69
2017-09-12 06:00:00 15.3 2 Noroeste 7 Sudoeste 0 -- -- 62
2017-09-12 05:00:00 16.6 2 Sudeste 5 Nordeste 0 -- -- 63
2017-09-12 04:00:00 17.7 3 Nordeste 6 Noroeste 0 -- -- 54
2017-09-12 03:00:00 18.9 2 Sudoeste 5 Sudeste 0 -- -- 51
2017-09-12 02:00:00 21.7 5 Sur 8 Sudeste 0 -- -- 40
2017-09-12 01:00:00 20 6 Sudeste 12 Sur 0 -- -- 47
2017-09-12 00:00:00 21.8 4 Sudeste 6 Sudeste 0 -- -- 43
2017-09-11 23:00:00 22.5 2 Noroeste 5 Sur 0 -- -- 41
2017-09-11 22:00:00 25.3 3 Nordeste 7 Norte 0 -- -- 34
2017-09-11 21:00:00 27.5 6 Norte 10 Norte 0 -- -- 30
2017-09-11 20:00:00 30.7 9 Norte 15 Norte 0 -- -- 24
2017-09-11 19:00:00 32.4 8 Norte 15 Noroeste 0 -- -- 20
2017-09-11 18:00:00 33.1 6 Noroeste 13 Noroeste 0 -- -- 16
2017-09-11 17:00:00 32.9 6 Sur 13 Sur 0 -- -- 15
2017-09-11 16:00:00 31.9 6 Sudoeste 13 Oeste 0 -- -- 17
2017-09-11 15:00:00 30.6 6 Oeste 12 Sudoeste 0 -- -- 19
2017-09-11 14:00:00 28.9 4 Sudoeste 12 Oeste 0 -- -- 23
2017-09-11 13:00:00 27 4 Sudoeste 10 Sudoeste 0 -- -- 31
2017-09-11 12:00:00 24.5 5 Sudoeste 8 Sur 0 -- -- 38
2017-09-11 11:00:00 20.9 2 Sudeste 6 Sur 0 -- -- 47
2017-09-11 10:00:00 16.6 2 Sudoeste 6 Sur 0 -- -- 62
2017-09-11 09:00:00 13.9 2 Sudeste 8 Sur 0 -- -- 70
2017-09-11 08:00:00 12.3 4 Sur 9 Sudoeste 0 -- -- 75
2017-09-11 07:00:00 13.1 0 Calma 4 Norte 0 -- -- 70
2017-09-11 06:00:00 12.9 0 Calma 8 Sur 0 -- -- 69
2017-09-11 05:00:00 13.5 3 Sudoeste 8 Sudoeste 0 -- -- 71
2017-09-11 04:00:00 14.3 0 Calma 9 Nordeste 0 -- -- 63
2017-09-11 03:00:00 15 3 Sur 13 Sudeste 0 -- -- 64
2017-09-11 02:00:00 14.9 4 Sur 8 Sur 0 -- -- 60
2017-09-11 01:00:00 15.8 8 Norte 9 Norte 0 -- -- 53
2017-09-11 00:00:00 17.4 6 Sudeste 9 Sudeste 0 -- -- 49
2017-09-10 23:00:00 19.1 3 Sur 7 Sur 0 -- -- 41
2017-09-10 22:00:00 20.3 3 Norte 11 Noroeste 0 -- -- 37
2017-09-10 21:00:00 22.5 9 Noroeste 13 Noroeste 0 -- -- 33
2017-09-10 20:00:00 25 8 Norte 24 Noroeste 0 -- -- 28
2017-09-10 19:00:00 25.8 10 Noroeste 28 Noroeste 0 -- -- 26
2017-09-10 18:00:00 25.9 18 Norte 31 Noroeste 0 -- -- 27
2017-09-10 17:00:00 26.2 18 Norte 27 Norte 0 -- -- 27
2017-09-10 16:00:00 25.7 11 Norte 24 Noroeste 0 -- -- 28
2017-09-10 15:00:00 25.1 13 Norte 23 Noroeste 0 -- -- 28
2017-09-10 14:00:00 23.6 8 Norte 18 Noroeste 0 -- -- 32
2017-09-10 13:00:00 21.6 7 Noroeste 16 Norte 0 -- -- 41
2017-09-10 12:00:00 20.5 7 Norte 13 Norte 0 -- -- 43
2017-09-10 11:00:00 18.3 5 Noroeste 17 Noroeste 0 -- -- 52
2017-09-10 10:00:00 16.7 12 Noroeste 22 Noroeste 0 -- -- 56
2017-09-10 09:00:00 15.2 2 Sudeste 6 Noroeste 0 -- -- 63
2017-09-10 08:00:00 13 4 Norte 10 Noroeste 0 -- -- 68
2017-09-10 07:00:00 13.7 5 Noroeste 15 Noroeste 0 -- -- 65
2017-09-10 06:00:00 14.8 15 Noroeste 19 Oeste 0 -- -- 61
2017-09-10 05:00:00 15.9 13 Noroeste 19 Noroeste 0 -- -- 57
2017-09-10 04:00:00 16.5 9 Noroeste 26 Noroeste 0 -- -- 55
2017-09-10 03:00:00 17.5 15 Noroeste 24 Noroeste 0 -- -- 53
2017-09-10 02:00:00 18.6 15 Noroeste 29 Noroeste 0 -- -- 50
2017-09-10 01:00:00 19.6 18 Noroeste 28 Noroeste 0 -- -- 58
2017-09-10 00:00:00 19.8 15 Oeste 36 Oeste 0 -- -- 68
2017-09-09 23:00:00 20.7 21 Oeste 43 Oeste 0 -- -- 66
2017-09-09 22:00:00 21.7 24 Oeste 44 Oeste 0 -- -- 60
2017-09-09 21:00:00 23.2 25 Oeste 42 Oeste 0 -- -- 52
2017-09-09 20:00:00 24.5 24 Oeste 44 Oeste 0 -- -- 47
2017-09-09 19:00:00 25.5 28 Oeste 45 Noroeste 0 -- -- 40
2017-09-09 18:00:00 25.9 28 Oeste 47 Oeste 0 -- -- 34
2017-09-09 17:00:00 25.3 24 Noroeste 36 Noroeste 0 -- -- 40
2017-09-09 16:00:00 24 18 Noroeste 32 Noroeste 0 -- -- 40
2017-09-09 15:00:00 24.4 18 Noroeste 26 Noroeste 0 -- -- 36
2017-09-09 14:00:00 23.6 19 Noroeste 25 Noroeste 0 -- -- 31
2017-09-09 13:00:00 23.8 14 Noroeste 22 Noroeste 0 -- -- 33
2017-09-09 12:00:00 22.7 7 Noroeste 29 Noroeste 0 -- -- 36
2017-09-09 11:00:00 21.6 17 Noroeste 25 Noroeste 0 -- -- 50
2017-09-09 10:00:00 20.2 11 Noroeste 20 Noroeste 0 -- -- 57
2017-09-09 09:00:00 16.3 0 Calma 13 Norte 0 -- -- 70
2017-09-09 08:00:00 13.2 9 Norte 12 Norte 0 -- -- 77
2017-09-09 07:00:00 15 2 Noroeste 6 Sudoeste 0 -- -- 71
2017-09-09 06:00:00 16.3 0 Calma 9 Norte 0 -- -- 65
2017-09-09 05:00:00 17 7 Norte 10 Noroeste 0 -- -- 61
2017-09-09 04:00:00 20.6 4 Sudeste 9 Este 0 -- -- 49
2017-09-09 03:00:00 22.4 6 Oeste 14 Sudoeste 0 -- -- 41
2017-09-09 02:00:00 22.4 6 Sudoeste 19 Sur 0 -- -- 47
2017-09-09 01:00:00 24.6 11 Sudoeste 19 Sudoeste 0 -- -- 39
2017-09-09 00:00:00 24.3 9 Sudoeste 18 Sudoeste 0 -- -- 42
2017-09-08 23:00:00 24.8 9 Sur 13 Sur 0 -- -- 50
2017-09-08 22:00:00 25.8 7 Sur 12 Sur 0 -- -- 49
2017-09-08 21:00:00 28.6 6 Sur 26 Sudoeste 0 -- -- 40
2017-09-08 20:00:00 31.8 13 Oeste 23 Noroeste 0 -- -- 25
2017-09-08 19:00:00 33.4 14 Oeste 28 Oeste 0 -- -- 24
2017-09-08 18:00:00 34.2 9 Oeste 25 Oeste 0 -- -- 25
2017-09-08 17:00:00 33.9 8 Sudoeste 20 Sudoeste 0 -- -- 31
2017-09-08 16:00:00 34.2 5 Sudoeste 18 Sudoeste 0 -- -- 28
2017-09-08 15:00:00 32.9 10 Sudoeste 16 Sudoeste 0 -- -- 32
2017-09-08 14:00:00 31.1 8 Oeste 13 Sudoeste 0 -- -- 36
2017-09-08 13:00:00 29.3 8 Oeste 14 Oeste 0 -- -- 39
2017-09-08 12:00:00 27.3 6 Sudoeste 13 Sudoeste 0 -- -- 46
2017-09-08 11:00:00 24.6 8 Sudoeste 11 Sudoeste 0 -- -- 54
2017-09-08 10:00:00 21.4 4 Sudoeste 7 Sudoeste 0 -- -- 66
2017-09-08 09:00:00 18.7 3 Sudoeste 6 Sudoeste 0 -- -- 80
2017-09-08 08:00:00 17.9 0 Calma 5 Sudoeste 0 -- -- 81
2017-09-08 07:00:00 18.5 2 Sudoeste 4 Sudoeste 0 -- -- 77
2017-09-08 06:00:00 18.5 3 Sur 7 Sudoeste 0 -- -- 80
2017-09-08 05:00:00 18.8 4 Sur 9 Sudoeste 0 -- -- 80
2017-09-08 04:00:00 19.2 6 Sur 9 Sur 0 -- -- 78
2017-09-08 03:00:00 20.1 0 Calma 6 Sur 0 -- -- 74
2017-09-08 02:00:00 20.7 6 Sur 9 Sur 0 -- -- 72
2017-09-08 01:00:00 21.4 8 Sudoeste 12 Sur 0 -- -- 71
2017-09-08 00:00:00 22.2 5 Sur 19 Sudoeste 0 -- -- 69
2017-09-07 23:00:00 23.6 13 Sudoeste 20 Sudoeste 0 -- -- 65
2017-09-07 22:00:00 24.5 9 Sur 16 Sur 0 -- -- 60
2017-09-07 21:00:00 26.5 12 Sur 21 Sur 0 -- -- 53
2017-09-07 20:00:00 28.8 15 Sur 23 Sur 0 -- -- 44
2017-09-07 19:00:00 30.8 18 Sur 26 Sur 0 -- -- 37
2017-09-07 18:00:00 32.1 14 Sur 23 Sur 0 -- -- 36
2017-09-07 17:00:00 32.2 13 Sur 24 Sur 0 -- -- 33
2017-09-07 16:00:00 32.1 14 Sur 25 Sudeste 0 -- -- 32
2017-09-07 15:00:00 31.7 15 Sur 30 Sur 0 -- -- 33
2017-09-07 14:00:00 31 15 Sur 25 Sur 0 -- -- 33
2017-09-07 13:00:00 30 17 Sur 26 Sur 0 -- -- 33
2017-09-07 12:00:00 28.1 8 Sudoeste 16 Sudoeste 0 -- -- 37
2017-09-07 11:00:00 25.8 8 Sudoeste 15 Sudoeste 0 -- -- 43
2017-09-07 10:00:00 22.5 5 Sur 8 Sudoeste 0 -- -- 55
2017-09-07 09:00:00 20.5 0 Calma 4 Sur 0 -- -- 67
2017-09-07 08:00:00 19.2 0 Calma 5 Sudoeste 0 -- -- 62
2017-09-07 07:00:00 19.6 3 Oeste 7 Sudoeste 0 -- -- 65
2017-09-07 06:00:00 19.9 6 Sudoeste 8 Sudoeste 0 -- -- 68
2017-09-07 05:00:00 20.3 7 Sudoeste 10 Sudoeste 0 -- -- 68
2017-09-07 04:00:00 20.5 4 Sudoeste 9 Sudoeste 0 -- -- 62
2017-09-07 03:00:00 21.5 6 Sudoeste 14 Sudoeste 0 -- -- 60
2017-09-07 02:00:00 22 9 Sur 18 Sudoeste 0 -- -- 50
2017-09-07 01:00:00 22.1 6 Sudoeste 17 Sudoeste 0 -- -- 49
2017-09-07 00:00:00 22.9 13 Sudoeste 18 Sudoeste 0 -- -- 57
2017-09-06 23:00:00 23.9 13 Sudoeste 24 Sur 0 -- -- 48
2017-09-06 22:00:00 25.1 15 Sur 29 Sur 0 -- -- 38
2017-09-06 21:00:00 26.6 14 Sur 35 Sur 0 -- -- 37
2017-09-06 20:00:00 29 24 Sur 33 Sur 0 -- -- 33
2017-09-06 19:00:00 31.2 23 Sur 31 Sur 0 -- -- 30
2017-09-06 18:00:00 32.7 19 Sur 31 Sur 0 -- -- 28
2017-09-06 17:00:00 33.3 22 Sur 30 Sur 0 -- -- 29
2017-09-06 16:00:00 33.5 18 Sur 27 Sur 0 -- -- 28
2017-09-06 15:00:00 33.3 15 Sur 24 Sur 0 -- -- 30
2017-09-06 14:00:00 32.3 13 Sur 27 Sur 0 -- -- 33
2017-09-06 13:00:00 31.5 14 Sur 22 Sur 0 -- -- 32
2017-09-06 12:00:00 28.8 8 Sur 14 Sur 0 -- -- 44
2017-09-06 11:00:00 25.7 6 Sur 12 Sur 0 -- -- 58
2017-09-06 10:00:00 22.6 2 Sur 5 Sudoeste 0 -- -- 72
2017-09-06 09:00:00 20.1 2 Sur 5 Sur 0 -- -- 84
2017-09-06 08:00:00 18.6 0 Calma 5 Sur 0 -- -- 88
2017-09-06 07:00:00 18.8 4 Sur 10 Sudoeste 0 -- -- 88
2017-09-06 06:00:00 19.3 6 Sur 10 Sur 0 -- -- 85
2017-09-06 05:00:00 20.1 8 Sur 15 Sur 0 -- -- 81
2017-09-06 04:00:00 19.8 7 Sur 11 Sur 0 -- -- 80
2017-09-06 03:00:00 20.6 4 Sudeste 9 Oeste 0 -- -- 78
2017-09-06 02:00:00 21.4 5 Sudoeste 8 Sur 0 -- -- 74
2017-09-06 01:00:00 21.5 6 Sur 9 Sudoeste 0 -- -- 72
2017-09-06 00:00:00 22.1 9 Sur 12 Sur 0 -- -- 68
2017-09-05 23:00:00 22.9 7 Sur 12 Sur 0 -- -- 66
2017-09-05 22:00:00 24.1 6 Sur 17 Sudoeste 0 -- -- 61
2017-09-05 21:00:00 25.9 10 Sudoeste 21 Sur 0 -- -- 55
2017-09-05 20:00:00 27.9 17 Sur 30 Sur 0 -- -- 51
2017-09-05 19:00:00 29.9 20 Sur 30 Sur 0 -- -- 47
2017-09-05 18:00:00 30.5 19 Sur 37 Sudoeste 0 -- -- 42
2017-09-05 17:00:00 30 25 Sur 38 Sur 0 -- -- 46
2017-09-05 16:00:00 29.7 28 Sur 41 Sur 0 -- -- 49
2017-09-05 15:00:00 29.1 30 Sur 42 Sur 0 -- -- 52
2017-09-05 14:00:00 28.7 27 Sur 39 Sur 0 -- -- 56
2017-09-05 13:00:00 28.1 23 Sur 35 Sur 0 -- -- 56
2017-09-05 12:00:00 26.8 23 Sur 31 Sur 0 -- -- 60
2017-09-05 11:00:00 25.4 15 Sur 23 Sur 0 -- -- 67
2017-09-05 10:00:00 22.9 5 Sudoeste 10 Sur 0 -- -- 77
2017-09-05 09:00:00 19.5 4 Sur 7 Sudeste 0 -- -- 85
2017-09-05 08:00:00 18.1 5 Nordeste 6 Nordeste 0 -- -- 82
2017-09-05 07:00:00 18.4 2 Norte 8 Sudoeste 0 -- -- 83
2017-09-05 06:00:00 18.7 8 Sudoeste 12 Sur 0 -- -- 79
2017-09-05 05:00:00 18.5 3 Sur 8 Sudeste 0 -- -- 85
2017-09-05 04:00:00 19.3 2 Nordeste 5 Noroeste 0 -- -- 80
2017-09-05 03:00:00 19.7 5 Noroeste 8 Este 0 -- -- 76
2017-09-05 02:00:00 20.6 4 Este 6 Este 0 -- -- 73
2017-09-05 01:00:00 22.8 3 Sudeste 10 Oeste 0 -- -- 64
2017-09-05 00:00:00 24.5 7 Oeste 18 Oeste 0 -- -- 57
2017-09-04 23:00:00 25 10 Oeste 20 Oeste 0 -- -- 54
2017-09-04 22:00:00 26.1 0 Calma 13 Noroeste 0 -- -- 43
2017-09-04 21:00:00 27.9 11 Noroeste 21 Noroeste 0 -- -- 37
2017-09-04 20:00:00 29.9 18 Noroeste 34 Oeste 0 -- -- 31
2017-09-04 19:00:00 31.1 18 Noroeste 29 Oeste 0 -- -- 28
2017-09-04 18:00:00 31.3 24 Noroeste 34 Oeste 0 -- -- 27
2017-09-04 17:00:00 31.3 23 Oeste 40 Noroeste 0 -- -- 26
2017-09-04 16:00:00 31 17 Noroeste 30 Noroeste 0 -- -- 27
2017-09-04 15:00:00 30 16 Noroeste 27 Noroeste 0 -- -- 27
2017-09-04 14:00:00 29.2 15 Noroeste 23 Noroeste 0 -- -- 31
2017-09-04 13:00:00 27.7 9 Noroeste 18 Noroeste 0 -- -- 34
2017-09-04 12:00:00 26.3 6 Noroeste 16 Norte 0 -- -- 41
2017-09-04 11:00:00 25.3 11 Norte 17 Norte 0 -- -- 50
2017-09-04 10:00:00 21.8 5 Norte 8 Norte 0 -- -- 73
2017-09-04 09:00:00 18.7 0 Calma 2 Norte 0 -- -- 83
2017-09-04 08:00:00 17.3 3 Nordeste 4 Nordeste 0 -- -- 86
2017-09-04 07:00:00 18.1 3 Sudeste 6 Sur 0 -- -- 82
2017-09-04 06:00:00 19.3 6 Noroeste 9 Norte 0 -- -- 73
2017-09-04 05:00:00 20.9 2 Este 6 Sudoeste 0 -- -- 72
2017-09-04 04:00:00 21.4 2 Oeste 13 Nordeste 0 -- -- 70
2017-09-04 03:00:00 22 3 Sur 13 Sudoeste 0 -- -- 72
2017-09-04 02:00:00 23.7 9 Sudoeste 18 Oeste 0 -- -- 65
2017-09-04 01:00:00 24 9 Sudoeste 18 Sudoeste 0 -- -- 66
2017-09-04 00:00:00 23.9 5 Sur 13 Sudoeste 0 -- -- 65
2017-09-03 23:00:00 24.9 4 Sudoeste 15 Sudoeste 0 -- -- 64
2017-09-03 22:00:00 25.9 7 Sur 10 Sur 0 -- -- 57
2017-09-03 21:00:00 27.7 6 Sur 19 Sur 0 -- -- 51
2017-09-03 20:00:00 29.4 8 Sur 14 Sur 0 -- -- 47
2017-09-03 19:00:00 30.7 11 Sur 16 Sur 0 -- -- 43
2017-09-03 18:00:00 31.8 3 Sur 16 Sur 0 -- -- 39
2017-09-03 17:00:00 31.8 8 Sur 13 Sur 0 -- -- 40
2017-09-03 16:00:00 30.8 9 Sudoeste 19 Sur 0 -- -- 42
2017-09-03 15:00:00 30.1 10 Sudoeste 26 Sur 0 -- -- 48
2017-09-03 14:00:00 29 13 Sur 27 Sur 0 -- -- 49
2017-09-03 13:00:00 27.8 20 Sur 30 Sudeste 0 -- -- 53
2017-09-03 12:00:00 27 18 Sur 29 Sur 0 -- -- 55
2017-09-03 11:00:00 25.1 15 Sur 28 Sudoeste 0 -- -- 64
2017-09-03 10:00:00 22.4 10 Sudoeste 15 Sudoeste 0 -- -- 79
2017-09-03 09:00:00 20.6 4 Sudoeste 11 Sur 0 -- -- 85
2017-09-03 08:00:00 19.9 2 Sudeste 17 Sur 0 -- -- 87
2017-09-03 07:00:00 20.6 17 Sur 28 Sur 0 -- -- 85
2017-09-03 06:00:00 20.8 21 Sur 33 Sur 0 -- -- 85
2017-09-03 05:00:00 20.8 21 Sur 35 Sur 0 -- -- 86
2017-09-03 04:00:00 21 15 Sur 30 Sur 0 -- -- 85
2017-09-03 03:00:00 20.9 14 Sur 26 Sur 0 -- -- 86
2017-09-03 02:00:00 21 15 Sudoeste 23 Sur 0 -- -- 84
2017-09-03 01:00:00 21.3 13 Sur 27 Sur 0 -- -- 80
2017-09-03 00:00:00 21.5 14 Sur 27 Sur 0 -- -- 76
2017-09-02 23:00:00 22.1 19 Sur 32 Sur 0 -- -- 73
2017-09-02 22:00:00 22.7 21 Sur 39 Sur 0 -- -- 72
2017-09-02 21:00:00 23.4 18 Sur 42 Sur 0 -- -- 69
2017-09-02 20:00:00 24.8 28 Sur 42 Sur 0 -- -- 64
2017-09-02 19:00:00 26.3 31 Sur 44 Sur 0 -- -- 58
2017-09-02 18:00:00 27.3 29 Sur 40 Sur 0 -- -- 55
2017-09-02 17:00:00 27.9 26 Sur 38 Sur 0 -- -- 54
2017-09-02 16:00:00 28 27 Sur 41 Sur 0 -- -- 54
2017-09-02 15:00:00 28 28 Sur 42 Sur 0 -- -- 56
2017-09-02 14:00:00 27.8 24 Sur 39 Sur 0 -- -- 56
2017-09-02 13:00:00 27.2 27 Sur 38 Sur 0 -- -- 59
2017-09-02 12:00:00 26.1 27 Sur 40 Sur 0 -- -- 61
2017-09-02 11:00:00 24.9 28 Sur 41 Sur 0 -- -- 66
2017-09-02 10:00:00 23.9 25 Sur 36 Sudeste 0 -- -- 72
2017-09-02 09:00:00 22.3 9 Sur 18 Sur 0 -- -- 76
2017-09-02 08:00:00 20.7 5 Sur 17 Sudoeste 0 -- -- 84
2017-09-02 07:00:00 20.8 13 Sur 22 Sur 0 -- -- 87
2017-09-02 06:00:00 21.3 11 Sur 27 Sur 0 -- -- 85
2017-09-02 05:00:00 21.5 17 Sur 27 Sur 0 -- -- 84
2017-09-02 04:00:00 21.5 13 Sur 22 Sur 0 -- -- 84
2017-09-02 03:00:00 21.6 12 Sur 23 Sur 0 -- -- 82
2017-09-02 02:00:00 22 15 Sur 26 Sur 0 -- -- 79
2017-09-02 01:00:00 22.4 16 Sur 28 Sur 0 -- -- 72
2017-09-02 00:00:00 22.7 15 Sudoeste 35 Sur 0 -- -- 71
2017-09-01 23:00:00 22.9 21 Sur 37 Sur 0 -- -- 71
2017-09-01 22:00:00 23.4 21 Sur 33 Sur 0 -- -- 68
2017-09-01 21:00:00 24.3 23 Sur 36 Sur 0 -- -- 60
2017-09-01 20:00:00 26 27 Sur 41 Sur 0 -- -- 56
2017-09-01 19:00:00 27.7 26 Sur 38 Sur 0 -- -- 52
2017-09-01 18:00:00 28.9 21 Sur 35 Sur 0 -- -- 47
2017-09-01 17:00:00 29.6 19 Sur 30 Sur 0 -- -- 46
2017-09-01 16:00:00 29.8 12 Sur 26 Sur 0 -- -- 46
2017-09-01 15:00:00 29.5 14 Sur 27 Sur 0 -- -- 48
2017-09-01 14:00:00 29 14 Sur 23 Sur 0 -- -- 48
2017-09-01 13:00:00 28 9 Sudoeste 21 Sudoeste 0 -- -- 51
2017-09-01 12:00:00 27.1 9 Sur 15 Sudoeste 0 -- -- 52
2017-09-01 11:00:00 24.9 7 Sudoeste 13 Sudoeste 0 -- -- 61
2017-09-01 10:00:00 22.2 4 Sudoeste 11 Sur 0 -- -- 69
2017-09-01 09:00:00 20.6 4 Sur 10 Sudoeste 0 -- -- 74
2017-09-01 08:00:00 19.2 8 Sudoeste 10 Sur 0 -- -- 77
2017-09-01 07:00:00 19.8 5 Sudoeste 18 Sudoeste 0 -- -- 76
2017-09-01 06:00:00 19.7 9 Sur 14 Sur 0 -- -- 78
2017-09-01 05:00:00 20.2 6 Sudoeste 15 Sudoeste 0 -- -- 79
2017-09-01 04:00:00 20.5 11 Sudoeste 20 Sur 0 -- -- 78
2017-09-01 03:00:00 21.2 16 Sur 26 Sur 0 -- -- 69
2017-09-01 02:00:00 21.4 17 Sur 27 Sur 0 -- -- 68
2017-09-01 01:00:00 21.6 16 Sur 26 Sur 0 -- -- 73
2017-09-01 00:00:00 21.9 13 Sur 23 Sur 0 -- -- 73
2017-08-31 23:00:00 22.5 13 Sur 24 Sudoeste 0 -- -- 68
2017-08-31 22:00:00 23.1 11 Sur 17 Sur 0 -- -- 62
2017-08-31 21:00:00 24.9 9 Sur 22 Sur 0 -- -- 57
2017-08-31 20:00:00 26.8 18 Sur 29 Sur 0 -- -- 50
2017-08-31 19:00:00 28.6 21 Sur 29 Sur 0 -- -- 45
2017-08-31 18:00:00 30.1 17 Sur 27 Sur 0 -- -- 41
2017-08-31 17:00:00 30.5 8 Sudoeste 15 Oeste 0 -- -- 42
2017-08-31 16:00:00 29.7 7 Oeste 14 Oeste 0 -- -- 45
2017-08-31 15:00:00 28.8 8 Oeste 15 Oeste 0 -- -- 49
2017-08-31 14:00:00 27.7 5 Norte 16 Norte 0 -- -- 53
2017-08-31 13:00:00 26.9 5 Este 14 Nordeste 0 -- -- 55
2017-08-31 12:00:00 25.2 5 Nordeste 12 Norte 0 -- -- 61
2017-08-31 11:00:00 22 4 Noroeste 8 Norte 0 -- -- 76
2017-08-31 10:00:00 19.6 3 Sudoeste 5 Sudoeste 0 -- -- 88
2017-08-31 09:00:00 17.7 0 Calma 3 Noroeste 0 -- -- 94
2017-08-31 08:00:00 17.1 2 Sudeste 5 Norte 0 -- -- 94
2017-08-31 07:00:00 17.2 4 Norte 5 Norte 0 -- -- 93
2017-08-31 06:00:00 17.7 3 Sur 4 Sudoeste 0 -- -- 93
2017-08-31 05:00:00 17.4 0 Calma 5 Noroeste 0 -- -- 93
2017-08-31 04:00:00 17.6 2 Sudeste 7 Sudeste 0 -- -- 92
2017-08-31 03:00:00 17.8 5 Norte 8 Noroeste 0 -- -- 90
2017-08-31 02:00:00 18.4 2 Sur 8 Noroeste 0 -- -- 88
2017-08-31 01:00:00 18.8 6 Sur 12 Sur 0 -- -- 86
2017-08-31 00:00:00 19 6 Sur 10 Sur 0 -- -- 87
2017-08-30 23:00:00 19.3 8 Sur 14 Sudoeste 0 -- -- 83
2017-08-30 22:00:00 20.1 11 Sudoeste 20 Sur 0 -- -- 79
2017-08-30 21:00:00 20.8 16 Sur 29 Sur 0 -- -- 76
2017-08-30 20:00:00 21.9 21 Sur 36 Sur 0 -- -- 71
2017-08-30 19:00:00 23.3 28 Sur 37 Sur 0 -- -- 67
2017-08-30 18:00:00 24.8 23 Sur 32 Sur 0 -- -- 61
2017-08-30 17:00:00 27.1 6 Oeste 12 Sur 0 -- -- 43
2017-08-30 16:00:00 26.1 6 Oeste 15 Norte 0 -- -- 51
2017-08-30 15:00:00 24.6 8 Nordeste 18 Nordeste 0 -- -- 59
2017-08-30 14:00:00 23.8 7 Nordeste 14 Nordeste 0 -- -- 58
2017-08-30 13:00:00 22.6 7 Norte 14 Norte 0 -- -- 61
2017-08-30 12:00:00 21 4 Norte 10 Norte 0 -- -- 72
2017-08-30 11:00:00 19.3 5 Noroeste 8 Norte 0 -- -- 83
2017-08-30 10:00:00 18.6 2 Noroeste 5 Noroeste 0 -- -- 85
2017-08-30 09:00:00 17.6 2 Nordeste 6 Norte 0 -- -- 92
2017-08-30 08:00:00 17.4 3 Sur 6 Sudeste 0 -- -- 88
2017-08-30 07:00:00 17.5 6 Sur 11 Sudeste 0 -- -- 88
2017-08-30 06:00:00 17.2 5 Sudeste 10 Sur 0 -- -- 91
2017-08-30 05:00:00 17.7 6 Sur 13 Sur 0 -- -- 90
2017-08-30 04:00:00 17.9 3 Este 8 Sudeste 0 -- -- 93
2017-08-30 03:00:00 17.9 4 Este 9 Este 0 -- -- 94
2017-08-30 02:00:00 17.7 2 Nordeste 6 Noroeste 0 -- -- 94
2017-08-30 01:00:00 17.8 4 Noroeste 5 Noroeste 0 -- -- 92
2017-08-30 00:00:00 18 3 Este 12 Este 0 -- -- 91
2017-08-29 23:00:00 17.7 9 Este 17 Sudeste 10.6 -- -- 92
2017-08-29 22:00:00 18 8 Norte 15 Noroeste 8.4 -- -- 90
2017-08-29 21:00:00 19.7 6 Norte 19 Nordeste 1.2 -- -- 78
2017-08-29 20:00:00 22.3 5 Oeste 24 Sur 0 -- -- 63
2017-08-29 19:00:00 23.8 18 Sur 32 Sudeste 0 -- -- 58
2017-08-29 18:00:00 23.6 12 Sur 18 Sur 0 -- -- 59
2017-08-29 17:00:00 24.4 9 Sudoeste 18 Sudoeste 0 -- -- 55
2017-08-29 16:00:00 25 10 Sudoeste 19 Sudoeste 0 -- -- 54
2017-08-29 15:00:00 23.8 8 Sudoeste 18 Sudoeste 0 -- -- 60
2017-08-29 14:00:00 22.3 6 Sudoeste 15 Oeste 0 -- -- 64
2017-08-29 13:00:00 21.5 8 Oeste 16 Oeste 0 -- -- 69
2017-08-29 12:00:00 20.9 5 Sudoeste 11 Oeste 0 -- -- 73
2017-08-29 11:00:00 19.5 0 Calma 8 Noroeste 0 -- -- 82
2017-08-29 10:00:00 18.4 4 Noroeste 9 Oeste 0 -- -- 85
2017-08-29 09:00:00 17.7 3 Oeste 11 Este 0 -- -- 92
2017-08-29 08:00:00 16.6 7 Este 9 Este 0 -- -- 94
2017-08-29 07:00:00 16.8 6 Nordeste 11 Norte 0 -- -- 93
2017-08-29 06:00:00 16.9 6 Nordeste 13 Nordeste 0 -- -- 93
2017-08-29 05:00:00 17.2 8 Norte 12 Nordeste 0 -- -- 93
2017-08-29 04:00:00 17.5 8 Norte 11 Norte 0 -- -- 93
2017-08-29 03:00:00 17.5 5 Norte 9 Norte 0 -- -- 91
2017-08-29 02:00:00 17.9 5 Nordeste 8 Este 0 -- -- 89
2017-08-29 01:00:00 18.5 3 Oeste 8 Noroeste 0 -- -- 84
2017-08-29 00:00:00 18.9 7 Noroeste 14 Noroeste 0 -- -- 83
2017-08-28 23:00:00 19.1 11 Noroeste 17 Noroeste 0 -- -- 91
2017-08-28 22:00:00 18.9 3 Este 8 Oeste 0 -- -- 92
2017-08-28 21:00:00 19.4 5 Sudeste 6 Sudeste 0 -- -- 91
2017-08-28 20:00:00 19.5 3 Este 10 Sudeste 0 -- -- 91
2017-08-28 19:00:00 19.1 9 Este 15 Sudeste 1.4 -- -- 92
2017-08-28 18:00:00 18.5 8 Nordeste 13 Norte 3 -- -- 93
2017-08-28 17:00:00 18.6 4 Sudoeste 13 Noroeste 0.6 -- -- 93
2017-08-28 16:00:00 18.3 9 Norte 14 Norte 2.8 -- -- 93
2017-08-28 15:00:00 17.5 4 Nordeste 13 Norte 0 -- -- 96
2017-08-28 14:00:00 17.2 10 Norte 28 Noroeste 8.2 -- -- 96
2017-08-28 13:00:00 17.3 12 Norte 22 Este 7 -- -- 95
2017-08-28 12:00:00 17.2 14 Norte 20 Norte 10.4 -- -- 94
2017-08-28 11:00:00 17.2 6 Nordeste 30 Norte 16.2 -- -- 92
2017-08-28 10:00:00 19.5 14 Nordeste 21 Nordeste 0 -- -- 76
2017-08-28 09:00:00 19.2 13 Nordeste 22 Nordeste 0 -- -- 77
2017-08-28 08:00:00 19.2 15 Nordeste 22 Nordeste 0 -- -- 77
2017-08-28 07:00:00 19.1 14 Norte 23 Norte 0 -- -- 81
2017-08-28 06:00:00 19.4 14 Norte 21 Norte 0 -- -- 80
2017-08-28 05:00:00 23.4 9 Sur 17 Sudeste 0 -- -- 76
2017-08-28 04:00:00 23.4 10 Sur 28 Sur 0 -- -- 76
2017-08-28 03:00:00 23.4 5 Noroeste 45 Sudoeste 0 -- -- 80
2017-08-28 02:00:00 23.8 28 Sur 48 Sur 0 -- -- 78
2017-08-28 01:00:00 23.4 26 Sur 44 Sudeste 0 -- -- 79
2017-08-28 00:00:00 23.2 26 Sur 43 Sudeste 0 -- -- 80
2017-08-27 23:00:00 23.4 18 Sur 44 Sur 0 -- -- 74
2017-08-27 22:00:00 23.6 26 Sur 40 Sur 0 -- -- 78
2017-08-27 21:00:00 24.3 18 Sur 34 Sur 0 -- -- 76
2017-08-27 20:00:00 26.2 19 Sur 34 Sur 0 -- -- 65
2017-08-27 19:00:00 28.5 23 Sur 34 Sur 0 -- -- 54
2017-08-27 18:00:00 30.2 18 Sur 28 Sudoeste 0 -- -- 53
2017-08-27 17:00:00 29.2 8 Sur 27 Sudeste 0 -- -- 56
2017-08-27 16:00:00 26.4 18 Sudeste 34 Este 0.2 -- -- 65
2017-08-27 15:00:00 21.8 21 Este 31 Este 4.2 -- -- 84
2017-08-27 14:00:00 22 10 Sudeste 27 Sudoeste 3.8 -- -- 88
2017-08-27 13:00:00 24.1 20 Oeste 30 Oeste 0.4 -- -- 75
2017-08-27 12:00:00 24.4 13 Este 21 Sudeste 0 -- -- 70
2017-08-27 11:00:00 24.3 23 Sudeste 42 Sur 0 -- -- 70
2017-08-27 10:00:00 24.9 19 Sudoeste 28 Sudoeste 0 -- -- 67
2017-08-27 09:00:00 25 21 Sudoeste 36 Sudoeste 0 -- -- 60
2017-08-27 08:00:00 24.4 17 Oeste 27 Oeste 0 -- -- 67
2017-08-27 07:00:00 25.3 6 Sudoeste 31 Sudeste 0 -- -- 54
2017-08-27 06:00:00 24.8 13 Sur 33 Sudeste 0 -- -- 62
2017-08-27 05:00:00 25.9 20 Sur 41 Sur 0 -- -- 52
2017-08-27 04:00:00 25.9 17 Sur 51 Sudoeste 0 -- -- 54
2017-08-27 03:00:00 25.6 29 Sur 42 Sur 0 -- -- 55
2017-08-27 02:00:00 25.7 30 Sur 46 Sur 0 -- -- 58
2017-08-27 01:00:00 26.5 5 Este 49 Sudeste 0 -- -- 50
2017-08-27 00:00:00 26.2 31 Sur 56 Sur 0 -- -- 58
2017-08-26 23:00:00 28 21 Sur 38 Sur 0 -- -- 44
2017-08-26 22:00:00 28.2 15 Sur 26 Sur 0 -- -- 39
2017-08-26 21:00:00 29.5 14 Sur 28 Sur 0 -- -- 36
2017-08-26 20:00:00 30.4 19 Sur 33 Sur 0 -- -- 33
2017-08-26 19:00:00 31.9 23 Sur 36 Sur 0 -- -- 31
2017-08-26 18:00:00 33.6 24 Sur 40 Sur 0 -- -- 28
2017-08-26 17:00:00 33.8 25 Sur 36 Sur 0 -- -- 38
2017-08-26 16:00:00 32.7 24 Sur 32 Sur 0 -- -- 37
2017-08-26 15:00:00 32.9 20 Sur 30 Sur 0 -- -- 37
2017-08-26 14:00:00 32.7 15 Sur 27 Sur 0 -- -- 36
2017-08-26 13:00:00 33.4 17 Sur 37 Sur 0 -- -- 32
2017-08-26 12:00:00 31.8 25 Sur 41 Sur 0 -- -- 32
2017-08-26 11:00:00 30.2 23 Sur 37 Sur 0 -- -- 35
2017-08-26 10:00:00 28.2 24 Sur 35 Sur 0 -- -- 41
2017-08-26 09:00:00 24.4 2 Sudeste 12 Sur 0 -- -- 50
2017-08-26 08:00:00 22.9 3 Este 13 Sudoeste 0 -- -- 55
2017-08-26 07:00:00 24.1 8 Sudoeste 37 Sur 0 -- -- 56
2017-08-26 06:00:00 25.5 29 Sur 44 Sur 0 -- -- 41
2017-08-26 05:00:00 25.1 24 Sur 34 Sur 0 -- -- 49
2017-08-26 04:00:00 24.2 5 Sur 29 Sur 0 -- -- 47
2017-08-26 03:00:00 25.6 20 Sudoeste 40 Sudoeste 0 -- -- 43
2017-08-26 02:00:00 25.7 18 Sur 36 Sur 0 -- -- 43
2017-08-26 01:00:00 27.2 24 Sur 36 Sur 0 -- -- 45
2017-08-26 00:00:00 26.4 8 Sudoeste 12 Sudoeste 0 -- -- 36
2017-08-25 23:00:00 27.7 12 Sudoeste 16 Sudoeste 0 -- -- 34
2017-08-25 22:00:00 28.1 9 Sudoeste 22 Sur 0 -- -- 34
2017-08-25 21:00:00 29.6 15 Sur 28 Sur 0 -- -- 35
2017-08-25 20:00:00 31.7 20 Sur 29 Sur 0 -- -- 28
2017-08-25 19:00:00 33.8 17 Sur 27 Sur 0 -- -- 28
2017-08-25 18:00:00 34.3 14 Sur 26 Sur 0 -- -- 24
2017-08-25 17:00:00 32.7 18 Sudeste 32 Sur 0 -- -- 26
2017-08-25 16:00:00 34.2 17 Sur 30 Sur 0 -- -- 22
2017-08-25 15:00:00 35.3 14 Sur 24 Sudeste 0 -- -- 24
2017-08-25 14:00:00 34.2 13 Sur 25 Sur 0 -- -- 26
2017-08-25 13:00:00 31.9 17 Sur 32 Sur 0 -- -- 28
2017-08-25 12:00:00 30.9 25 Sur 41 Sur 0 -- -- 27
2017-08-25 11:00:00 30.2 20 Sur 29 Sur 0 -- -- 23
2017-08-25 10:00:00 25.4 2 Sudoeste 5 Noroeste 0 -- -- 40
2017-08-25 09:00:00 21.8 2 Sudeste 8 Sur 0 -- -- 53
2017-08-25 08:00:00 20.1 2 Sudeste 18 Noroeste 0 -- -- 57
2017-08-25 07:00:00 21.6 8 Este 19 Este 0 -- -- 50
2017-08-25 06:00:00 20.4 5 Oeste 9 Sudeste 0 -- -- 58
2017-08-25 05:00:00 22 9 Sur 19 Sudoeste 0 -- -- 53
2017-08-25 04:00:00 23.1 13 Sur 26 Sur 0 -- -- 50
2017-08-25 03:00:00 23.6 16 Sur 28 Sur 0 -- -- 43
2017-08-25 02:00:00 22.2 7 Sur 11 Sur 0 -- -- 50
2017-08-25 01:00:00 23.3 7 Sudoeste 13 Sur 0 -- -- 47
2017-08-25 00:00:00 24.5 6 Sur 10 Sur 0 -- -- 41
2017-08-24 23:00:00 26.6 8 Sudoeste 12 Sudoeste 0 -- -- 36
2017-08-24 22:00:00 28.3 9 Sudoeste 13 Sudoeste 0 -- -- 31
2017-08-24 21:00:00 30.6 10 Sur 22 Sur 0 -- -- 26
2017-08-24 20:00:00 32.6 17 Sur 31 Sur 0 -- -- 23
2017-08-24 19:00:00 35 22 Sur 35 Sudeste 0 -- -- 20
2017-08-24 18:00:00 35.7 24 Sur 31 Sur 0 -- -- 19
2017-08-24 17:00:00 35.9 21 Sur 35 Sur 0 -- -- 19
2017-08-24 16:00:00 36.1 23 Sur 35 Sur 0 -- -- 20
2017-08-24 15:00:00 35.6 22 Sur 33 Sur 0 -- -- 20
2017-08-24 14:00:00 34.9 19 Sur 32 Sudoeste 0 -- -- 21
2017-08-24 13:00:00 33.5 22 Sur 35 Sur 0 -- -- 24
2017-08-24 12:00:00 32 19 Sur 33 Sur 0 -- -- 24
2017-08-24 11:00:00 29.5 21 Sur 29 Sur 0 -- -- 25
2017-08-24 10:00:00 23.3 2 Sur 6 Sudoeste 0 -- -- 44
2017-08-24 09:00:00 19.3 2 Sudoeste 4 Oeste 0 -- -- 56
2017-08-24 08:00:00 17.5 0 Calma 6 Sur 0 -- -- 58
2017-08-24 07:00:00 18.5 2 Sur 9 Sudoeste 0 -- -- 58
2017-08-24 06:00:00 19.3 7 Sudoeste 10 Sudoeste 0 -- -- 51
2017-08-24 05:00:00 20.5 6 Sur 9 Sur 0 -- -- 50
2017-08-24 04:00:00 20.8 3 Sudeste 7 Sudeste 0 -- -- 46
2017-08-24 03:00:00 21.6 5 Sudoeste 9 Sudoeste 0 -- -- 46
2017-08-24 02:00:00 22.4 4 Oeste 7 Oeste 0 -- -- 44
2017-08-24 01:00:00 23 4 Sudoeste 13 Sur 0 -- -- 43
2017-08-24 00:00:00 25.3 9 Sur 22 Sudoeste 0 -- -- 37